createdAt,value
2018-05-04T00:01:05.752Z,91.40
2018-05-04T00:03:35.303Z,91.30
2018-05-04T00:06:04.263Z,91.20
2018-05-04T00:08:38.413Z,91.20
2018-05-04T00:11:07.505Z,91.30
2018-05-04T00:13:43.358Z,90.90
2018-05-04T00:16:12.381Z,91.10
2018-05-04T00:18:42.800Z,91.10
2018-05-04T00:21:11.610Z,91.40
2018-05-04T00:23:45.582Z,91.20
2018-05-04T00:26:15.288Z,91.30
2018-05-04T00:28:47.617Z,91.30
2018-05-04T00:31:16.693Z,91.40
2018-05-04T00:33:53.567Z,91.50
2018-05-04T00:36:23.157Z,91.60
2018-05-04T00:38:53.106Z,91.60
2018-05-04T00:41:21.825Z,91.80
2018-05-04T00:43:56.228Z,91.80
2018-05-04T00:46:25.119Z,91.80
2018-05-04T00:49:01.289Z,91.50
2018-05-04T00:51:30.357Z,91.70
2018-05-04T00:54:22.813Z,91.70
2018-05-04T00:56:52.040Z,91.90
2018-05-04T00:59:20.733Z,91.60
2018-05-04T01:01:49.601Z,91.90
2018-05-04T01:04:18.579Z,91.90
2018-05-04T01:06:47.375Z,91.90
2018-05-04T01:09:16.774Z,91.90
2018-05-04T01:11:46.157Z,92.00
2018-05-04T01:14:14.953Z,91.80
2018-05-04T01:16:43.837Z,91.80
2018-05-04T01:19:13.535Z,91.90
2018-05-04T01:21:42.377Z,92.30
2018-05-04T01:24:15.179Z,92.70
2018-05-04T01:26:44.424Z,92.20
2018-05-04T01:29:20.307Z,92.90
2018-05-04T01:31:49.216Z,93.20
2018-05-04T01:34:19.343Z,93.20
2018-05-04T01:36:48.299Z,93.30
2018-05-04T01:39:25.104Z,93.50
2018-05-04T01:41:53.838Z,93.50
2018-05-04T01:44:23.989Z,93.50
2018-05-04T01:46:54.042Z,93.50
2018-05-04T01:49:25.937Z,93.50
2018-05-04T01:51:54.723Z,93.50
2018-05-04T01:54:28.289Z,93.50
2018-05-04T01:56:57.792Z,93.50
2018-05-04T01:59:34.027Z,93.90
2018-05-04T02:02:03.050Z,93.50
2018-05-04T02:04:32.206Z,93.40
2018-05-04T02:07:00.980Z,93.40
2018-05-04T02:09:38.303Z,93.50
2018-05-04T02:12:07.065Z,93.40
2018-05-04T02:14:36.975Z,93.40
2018-05-04T02:17:06.059Z,93.40
2018-05-04T02:19:42.959Z,93.40
2018-05-04T02:22:11.778Z,93.40
2018-05-04T02:24:41.330Z,93.80
2018-05-04T02:27:10.482Z,93.50
2018-05-04T02:29:44.415Z,93.70
2018-05-04T02:32:13.178Z,93.70
2018-05-04T02:37:04.947Z,93.60
2018-05-04T02:39:33.660Z,93.70
2018-05-04T02:42:02.386Z,94.20
2018-05-04T02:44:31.580Z,94.10
2018-05-04T02:47:01.137Z,94.20
2018-05-04T02:49:29.811Z,94.10
2018-05-04T02:51:59.631Z,94.10
2018-05-04T02:54:28.312Z,94.10
2018-05-04T02:59:37.738Z,94.40
2018-05-04T03:02:06.504Z,94.40
2018-05-04T03:04:36.245Z,94.50
2018-05-04T03:07:05.004Z,94.50
2018-05-04T03:09:34.513Z,94.50
2018-05-04T03:12:04.335Z,94.50
2018-05-04T03:14:33.102Z,94.50
2018-05-04T03:17:06.597Z,94.60
2018-05-04T03:19:36.396Z,94.70
2018-05-04T03:22:09.184Z,94.70
2018-05-04T03:24:38.216Z,94.50
2018-05-04T03:27:12.494Z,94.40
2018-05-04T03:29:41.988Z,94.90
2018-05-04T03:32:19.132Z,94.80
2018-05-04T03:34:47.896Z,94.70
2018-05-04T03:37:17.105Z,94.90
2018-05-04T03:39:45.922Z,95.00
2018-05-04T03:42:18.893Z,94.90
2018-05-04T03:44:47.854Z,94.70
2018-05-04T03:47:29.114Z,94.70
2018-05-04T03:49:59.024Z,94.80
2018-05-04T03:52:28.478Z,94.70
2018-05-04T03:54:57.187Z,94.70
2018-05-04T04:00:42.572Z,94.70
2018-05-04T04:04:14.733Z,94.90
2018-05-04T04:06:43.449Z,94.80
2018-05-04T04:09:14.176Z,94.60
2018-05-04T04:11:42.968Z,94.60
2018-05-04T04:14:12.531Z,94.70
2018-05-04T04:16:41.516Z,94.70
2018-05-04T04:19:10.264Z,94.70
2018-05-04T04:21:39.037Z,95.10
2018-05-04T04:24:08.179Z,95.00
2018-05-04T04:26:37.014Z,94.70
2018-05-04T04:29:05.856Z,94.90
2018-05-04T04:31:42.869Z,95.10
2018-05-04T04:34:12.377Z,94.90
2018-05-04T04:36:42.385Z,94.90
2018-05-04T04:39:11.523Z,94.60
2018-05-04T04:41:44.919Z,95.00
2018-05-04T04:44:14.761Z,95.10
2018-05-04T04:46:46.837Z,95.00
2018-05-04T04:49:17.153Z,95.00
2018-05-04T04:51:49.697Z,94.90
2018-05-04T04:54:19.184Z,95.20
2018-05-04T04:56:55.024Z,95.20
2018-05-04T04:59:23.705Z,95.30
2018-05-04T05:01:54.497Z,95.30
2018-05-04T05:04:25.730Z,95.20
2018-05-04T05:06:58.034Z,95.50
2018-05-04T05:09:26.901Z,95.60
2018-05-04T05:12:02.976Z,95.40
2018-05-04T05:14:31.736Z,95.20
2018-05-04T05:17:02.444Z,94.70
2018-05-04T05:19:31.981Z,94.90
2018-05-04T05:22:08.539Z,94.90
2018-05-04T05:24:37.305Z,95.10
2018-05-04T05:27:07.885Z,95.10
2018-05-04T05:29:36.799Z,94.90
2018-05-04T05:32:13.292Z,94.70
2018-05-04T05:34:42.161Z,94.70
2018-05-04T05:37:14.225Z,94.70
2018-05-04T05:39:42.987Z,94.70
2018-05-04T05:42:42.985Z,94.90
2018-05-04T05:45:19.921Z,94.90
2018-05-04T05:47:48.924Z,94.90
2018-05-04T05:50:25.653Z,94.40
2018-05-04T05:52:54.457Z,94.40
2018-05-04T05:55:23.710Z,94.80
2018-05-04T05:57:53.606Z,94.40
2018-05-04T06:00:29.642Z,94.70
2018-05-04T06:02:58.463Z,94.60
2018-05-04T06:05:28.302Z,94.70
2018-05-04T06:07:57.259Z,94.60
2018-05-04T06:10:30.009Z,93.80
2018-05-04T06:12:59.184Z,93.30
2018-05-04T06:15:31.630Z,94.10
2018-05-04T06:18:01.138Z,94.00
2018-05-04T06:20:33.615Z,93.60
2018-05-04T06:23:02.517Z,93.90
2018-05-04T06:25:38.513Z,93.60
2018-05-04T06:28:07.508Z,93.30
2018-05-04T06:30:37.960Z,93.20
2018-05-04T06:33:06.775Z,93.20
2018-05-04T06:35:44.048Z,92.70
2018-05-04T06:38:12.962Z,92.70
2018-05-04T06:40:45.217Z,92.10
2018-05-04T06:43:13.982Z,92.00
2018-05-04T06:45:47.037Z,92.50
2018-05-04T06:48:16.553Z,91.00
2018-05-04T06:50:52.836Z,91.00
2018-05-04T06:53:22.685Z,90.90
2018-05-04T06:55:51.905Z,90.90
2018-05-04T06:58:21.060Z,90.70
2018-05-04T07:00:58.299Z,91.30
2018-05-04T07:03:27.070Z,91.40
2018-05-04T07:05:56.718Z,90.40
2018-05-04T07:08:26.307Z,90.40
2018-05-04T07:11:03.620Z,90.40
2018-05-04T07:13:33.134Z,89.30
2018-05-04T07:16:02.741Z,89.40
2018-05-04T07:18:32.558Z,90.00
2018-05-04T07:21:05.267Z,90.00
2018-05-04T07:23:34.009Z,90.20
2018-05-04T07:26:09.808Z,89.60
2018-05-04T07:28:38.682Z,89.60
2018-05-04T07:31:09.069Z,89.70
2018-05-04T07:33:38.937Z,87.60
2018-05-04T07:36:14.781Z,87.50
2018-05-04T07:38:43.612Z,85.80
2018-05-04T07:41:15.083Z,84.70
2018-05-04T07:43:43.896Z,84.60
2018-05-04T07:46:20.350Z,86.30
2018-05-04T07:48:49.156Z,85.70
2018-05-04T07:51:19.756Z,86.30
2018-05-04T07:53:49.713Z,86.30
2018-05-04T07:56:29.795Z,86.20
2018-05-04T07:58:58.592Z,85.90
2018-05-04T08:01:29.183Z,84.10
2018-05-04T08:03:57.976Z,83.40
2018-05-04T08:06:26.807Z,82.00
2018-05-04T08:08:56.614Z,82.30
2018-05-04T08:11:28.117Z,82.40
2018-05-04T08:13:56.883Z,82.40
2018-05-04T08:16:33.815Z,82.60
2018-05-04T08:19:02.853Z,84.10
2018-05-04T08:21:32.446Z,80.40
2018-05-04T08:24:02.492Z,78.60
2018-05-04T08:26:34.872Z,78.60
2018-05-04T08:29:03.834Z,77.40
2018-05-04T08:31:36.915Z,77.90
2018-05-04T08:34:05.751Z,76.80
2018-05-04T08:36:38.018Z,74.60
2018-05-04T08:39:07.248Z,73.80
2018-05-04T08:41:43.817Z,72.40
2018-05-04T08:44:12.617Z,72.90
2018-05-04T08:46:42.838Z,71.50
2018-05-04T08:49:11.622Z,71.60
2018-05-04T08:51:48.816Z,72.80
2018-05-04T08:54:18.732Z,75.80
2018-05-04T08:56:47.602Z,75.80
2018-05-04T08:59:16.583Z,73.00
2018-05-04T09:01:53.354Z,70.40
2018-05-04T09:04:22.308Z,62.00
2018-05-04T09:06:52.870Z,67.60
2018-05-04T09:11:55.908Z,63.20
2018-05-04T09:14:25.010Z,60.00
2018-05-04T09:16:59.163Z,60.30
2018-05-04T09:19:28.146Z,58.10
2018-05-04T09:22:00.443Z,58.20
2018-05-04T09:24:29.253Z,56.00
2018-05-04T09:27:06.129Z,48.40
2018-05-04T09:29:35.137Z,48.20
2018-05-04T09:32:05.550Z,47.70
2018-05-04T09:34:35.092Z,52.50
2018-05-04T09:37:12.316Z,52.50
2018-05-04T09:39:41.185Z,48.90
2018-05-04T09:42:10.100Z,47.80
2018-05-04T09:44:40.212Z,53.00
2018-05-04T09:49:40.736Z,52.10
2018-05-04T09:52:14.226Z,49.90
2018-05-04T09:54:43.064Z,51.10
2018-05-04T09:57:20.799Z,49.10
2018-05-04T09:59:49.801Z,49.00
2018-05-04T10:02:19.462Z,47.40
2018-05-04T10:04:49.118Z,54.80
2018-05-04T10:07:21.751Z,54.90
2018-05-04T10:09:50.683Z,49.50
2018-05-04T10:12:23.526Z,51.00
2018-05-04T10:14:53.466Z,46.30
2018-05-04T10:17:24.367Z,47.10
2018-05-04T10:19:54.032Z,49.60
2018-05-04T10:22:26.705Z,49.90
2018-05-04T10:24:55.580Z,45.40
2018-05-04T10:27:31.440Z,46.40
2018-05-04T10:30:00.717Z,45.30
2018-05-04T10:32:31.436Z,48.80
2018-05-04T10:35:00.205Z,45.90
2018-05-04T10:37:36.978Z,47.10
2018-05-04T10:40:06.584Z,49.90
2018-05-04T10:42:36.989Z,47.40
2018-05-04T10:45:06.309Z,45.90
2018-05-04T10:47:38.458Z,50.80
2018-05-04T10:50:07.324Z,50.90
2018-05-04T10:52:40.268Z,49.90
2018-05-04T10:55:09.893Z,50.80
2018-05-04T10:57:46.980Z,50.60
2018-05-04T11:00:16.185Z,45.60
2018-05-04T11:02:45.197Z,42.30
2018-05-04T11:05:14.026Z,42.30
2018-05-04T11:07:51.204Z,46.50
2018-05-04T11:10:23.688Z,46.40
2018-05-04T11:12:54.887Z,46.60
2018-05-04T11:15:24.866Z,47.30
2018-05-04T11:17:53.663Z,47.10
2018-05-04T11:20:22.471Z,51.10
2018-05-04T11:22:55.346Z,45.00
2018-05-04T11:25:24.189Z,48.80
2018-05-04T11:28:00.406Z,48.80
2018-05-04T11:30:29.505Z,48.60
2018-05-04T11:32:59.831Z,50.90
2018-05-04T11:35:28.828Z,47.20
2018-05-04T11:38:05.448Z,56.10
2018-05-04T11:40:35.199Z,47.00
2018-05-04T11:43:04.814Z,47.10
2018-05-04T11:45:33.893Z,51.70
2018-05-04T11:48:10.927Z,49.30
2018-05-04T11:50:40.812Z,51.50
2018-05-04T11:53:11.783Z,51.40
2018-05-04T11:55:40.931Z,46.50
2018-05-04T11:58:16.110Z,44.30
2018-05-04T12:00:45.323Z,47.20
2018-05-04T12:03:16.447Z,43.30
2018-05-04T12:05:45.901Z,44.30
2018-05-04T12:08:23.038Z,46.90
2018-05-04T12:10:53.097Z,52.90
2018-05-04T12:13:32.973Z,52.90
2018-05-04T12:16:02.087Z,54.70
2018-05-04T12:18:31.227Z,41.10
2018-05-04T12:21:00.267Z,41.20
2018-05-04T12:23:29.658Z,43.80
2018-05-04T12:25:58.725Z,44.70
2018-05-04T12:28:27.852Z,41.20
2018-05-04T12:30:57.210Z,43.20
2018-05-04T12:33:29.484Z,44.90
2018-05-04T12:35:58.763Z,44.30
2018-05-04T12:38:36.368Z,42.80
2018-05-04T12:41:05.940Z,45.40
2018-05-04T12:43:35.830Z,47.10
2018-05-04T12:46:04.767Z,47.00
2018-05-04T12:48:40.950Z,46.70
2018-05-04T12:51:09.796Z,42.20
2018-05-04T12:53:39.807Z,49.40
2018-05-04T12:56:09.475Z,46.60
2018-05-04T12:58:41.280Z,46.60
2018-05-04T13:01:10.885Z,42.00
2018-05-04T13:03:42.733Z,42.70
2018-05-04T13:06:11.813Z,42.70
2018-05-04T13:08:47.852Z,42.70
2018-05-04T13:11:16.830Z,45.20
2018-05-04T13:13:47.531Z,40.60
2018-05-04T13:16:17.172Z,43.40
2018-05-04T13:18:50.153Z,43.30
2018-05-04T13:21:19.325Z,46.10
2018-05-04T13:23:56.867Z,39.00
2018-05-04T13:26:25.794Z,39.00
2018-05-04T13:28:58.584Z,39.10
2018-05-04T13:31:28.303Z,41.80
2018-05-04T13:33:59.199Z,41.80
2018-05-04T13:36:28.104Z,43.40
2018-05-04T13:39:06.936Z,40.00
2018-05-04T13:41:37.087Z,43.10
2018-05-04T13:44:06.151Z,43.10
2018-05-04T13:46:35.716Z,42.50
2018-05-04T13:49:08.501Z,38.80
2018-05-04T13:51:38.618Z,37.80
2018-05-04T13:54:11.022Z,37.80
2018-05-04T13:56:40.807Z,39.80
2018-05-04T13:59:18.553Z,39.60
2018-05-04T14:01:47.659Z,38.60
2018-05-04T14:04:16.879Z,40.20
2018-05-04T14:06:46.283Z,42.10
2018-05-04T14:09:17.449Z,37.70
2018-05-04T14:11:46.495Z,37.90
2018-05-04T14:14:18.848Z,38.70
2018-05-04T14:16:48.433Z,41.60
2018-05-04T14:19:21.942Z,43.10
2018-05-04T14:21:51.897Z,40.60
2018-05-04T14:24:22.731Z,40.60
2018-05-04T14:26:51.753Z,42.80
2018-05-04T14:29:29.125Z,43.90
2018-05-04T14:31:58.712Z,37.40
2018-05-04T14:34:27.732Z,39.40
2018-05-04T14:36:57.450Z,39.00
2018-05-04T14:39:28.374Z,41.70
2018-05-04T14:41:57.263Z,39.70
2018-05-04T14:44:34.417Z,38.00
2018-05-04T14:47:03.298Z,42.10
2018-05-04T14:49:32.641Z,38.80
2018-05-04T14:52:01.819Z,37.20
2018-05-04T14:54:39.125Z,39.10
2018-05-04T14:57:09.125Z,37.60
2018-05-04T14:59:38.607Z,37.60
2018-05-04T15:02:07.511Z,37.10
2018-05-04T15:04:41.447Z,40.40
2018-05-04T15:07:10.577Z,40.50
2018-05-04T15:09:46.236Z,39.80
2018-05-04T15:12:16.089Z,38.80
2018-05-04T15:14:46.526Z,38.70
2018-05-04T15:17:15.391Z,38.80
2018-05-04T15:19:52.655Z,37.10
2018-05-04T15:22:21.591Z,38.30
2018-05-04T15:24:51.557Z,39.30
2018-05-04T15:27:20.403Z,40.00
2018-05-04T15:29:56.723Z,42.10
2018-05-04T15:32:25.989Z,41.20
2018-05-04T15:35:00.871Z,38.90
2018-05-04T15:37:31.254Z,41.80
2018-05-04T15:40:02.181Z,41.30
2018-05-04T15:42:33.663Z,41.30
2018-05-04T15:45:03.092Z,40.60
2018-05-04T15:47:33.235Z,41.90
2018-05-04T15:50:09.870Z,39.70
2018-05-04T15:52:41.084Z,41.40
2018-05-04T15:55:11.042Z,42.00
2018-05-04T15:57:41.686Z,41.90
2018-05-04T16:00:11.606Z,40.80
2018-05-04T16:02:41.295Z,41.00
2018-05-04T16:05:10.547Z,41.00
2018-05-04T16:07:40.394Z,43.70
2018-05-04T16:12:41.014Z,42.80
2018-05-04T16:15:18.151Z,42.70
2018-05-04T16:17:49.373Z,42.10
2018-05-04T16:20:20.647Z,43.10
2018-05-04T16:22:49.818Z,41.50
2018-05-04T16:25:18.989Z,42.50
2018-05-04T16:27:47.811Z,41.20
2018-05-04T16:30:21.916Z,41.80
2018-05-04T16:32:50.890Z,42.80
2018-05-04T16:35:27.638Z,43.90
2018-05-04T16:37:58.248Z,46.30
2018-05-04T16:40:27.979Z,43.10
2018-05-04T16:42:57.207Z,43.10
2018-05-04T16:45:28.790Z,45.40
2018-05-04T16:48:01.903Z,45.10
2018-05-04T16:50:31.825Z,47.10
2018-05-04T16:53:01.949Z,47.10
2018-05-04T16:55:34.148Z,47.40
2018-05-04T16:58:03.165Z,46.20
2018-05-04T17:00:35.128Z,44.70
2018-05-04T17:03:04.886Z,47.00
2018-05-04T17:05:36.844Z,46.50
2018-05-04T17:08:06.760Z,47.80
2018-05-04T17:10:38.594Z,47.70
2018-05-04T17:13:07.527Z,45.10
2018-05-04T17:15:40.650Z,45.20
2018-05-04T17:18:09.567Z,45.50
2018-05-04T17:20:47.167Z,47.70
2018-05-04T17:23:17.103Z,46.50
2018-05-04T17:25:46.065Z,46.50
2018-05-04T17:28:15.126Z,46.80
2018-05-04T17:30:51.508Z,46.00
2018-05-04T17:33:20.749Z,45.70
2018-05-04T17:35:50.811Z,47.10
2018-05-04T17:38:20.144Z,47.60
2018-05-04T17:40:52.992Z,46.00
2018-05-04T17:43:21.851Z,46.00
2018-05-04T17:45:58.060Z,48.10
2018-05-04T17:48:27.042Z,47.70
2018-05-04T17:51:03.223Z,47.10
2018-05-04T17:53:33.160Z,47.20
2018-05-04T17:56:02.853Z,47.20
2018-05-04T17:58:31.809Z,47.20
2018-05-04T18:01:04.789Z,49.10
2018-05-04T18:03:33.676Z,48.40
2018-05-04T18:06:09.804Z,50.70
2018-05-04T18:08:41.257Z,51.40
2018-05-04T18:11:13.993Z,49.30
2018-05-04T18:13:42.945Z,49.90
2018-05-04T18:16:12.539Z,50.00
2018-05-04T18:18:41.384Z,50.70
2018-05-04T18:21:18.950Z,50.10
2018-05-04T18:23:48.083Z,53.80
2018-05-04T18:26:18.141Z,51.90
2018-05-04T18:28:47.190Z,51.80
2018-05-04T18:31:25.007Z,51.40
2018-05-04T18:33:53.888Z,51.40
2018-05-04T18:36:23.696Z,54.50
2018-05-04T18:38:54.170Z,56.10
2018-05-04T18:41:25.137Z,56.10
2018-05-04T18:43:54.102Z,58.30
2018-05-04T18:46:27.126Z,58.40
2018-05-04T18:48:56.085Z,55.80
2018-05-04T18:51:28.917Z,58.30
2018-05-04T18:53:58.957Z,58.30
2018-05-04T18:56:31.580Z,58.30
2018-05-04T18:59:00.436Z,60.60
2018-05-04T19:01:34.710Z,60.60
2018-05-04T19:04:04.605Z,61.10
2018-05-04T19:06:39.521Z,63.50
2018-05-04T19:09:09.718Z,64.70
2018-05-04T19:11:40.406Z,65.60
2018-05-04T19:14:09.402Z,66.50
2018-05-04T19:16:45.991Z,67.00
2018-05-04T19:19:15.962Z,68.60
2018-05-04T19:21:45.000Z,68.60
2018-05-04T19:24:14.231Z,70.10
2018-05-04T19:26:46.601Z,69.90
2018-05-04T19:29:15.558Z,71.30
2018-05-04T19:31:48.883Z,71.10
2018-05-04T19:34:18.545Z,73.50
2018-05-04T19:36:51.279Z,73.50
2018-05-04T19:39:20.498Z,73.60
2018-05-04T19:41:52.702Z,75.30
2018-05-04T19:44:21.767Z,74.90
2018-05-04T19:46:59.173Z,75.90
2018-05-04T19:49:28.327Z,75.90
2018-05-04T19:52:00.985Z,76.50
2018-05-04T19:54:30.241Z,76.00
2018-05-04T19:57:02.164Z,77.30
2018-05-04T19:59:31.094Z,77.10
2018-05-04T20:02:08.084Z,77.20
2018-05-04T20:04:37.726Z,78.60
2018-05-04T20:07:06.769Z,78.60
2018-05-04T20:09:35.590Z,78.30
2018-05-04T20:12:12.028Z,78.40
2018-05-04T20:14:41.764Z,78.70
2018-05-04T20:17:13.749Z,78.70
2018-05-04T20:19:42.805Z,78.90
2018-05-04T20:22:14.955Z,79.40
2018-05-04T20:24:46.037Z,79.00
2018-05-04T20:27:18.597Z,78.90
2018-05-04T20:29:47.537Z,79.40
2018-05-04T20:32:19.220Z,79.70
2018-05-04T20:34:48.901Z,81.30
2018-05-04T20:37:21.533Z,81.30
2018-05-04T20:39:50.948Z,80.30
2018-05-04T20:42:27.139Z,81.30
2018-05-04T20:44:56.089Z,81.60
2018-05-04T20:47:25.909Z,80.40
2018-05-04T20:49:55.062Z,80.40
2018-05-04T20:52:28.156Z,79.80
2018-05-04T20:54:57.147Z,82.20
2018-05-04T20:57:29.478Z,81.80
2018-05-04T20:59:58.790Z,80.90
2018-05-04T21:02:31.615Z,80.60
2018-05-04T21:05:01.426Z,79.40
2018-05-04T21:07:34.383Z,79.70
2018-05-04T21:10:03.256Z,79.60
2018-05-04T21:12:35.739Z,80.00
2018-05-04T21:15:04.905Z,80.70
2018-05-04T21:17:37.254Z,80.30
2018-05-04T21:20:07.152Z,80.40
2018-05-04T21:22:39.998Z,80.30
2018-05-04T21:25:08.813Z,79.40
2018-05-04T21:27:41.472Z,80.80
2018-05-04T21:30:10.713Z,81.50
2018-05-04T21:32:44.443Z,81.10
2018-05-04T21:35:15.634Z,81.10
2018-05-04T21:37:45.633Z,81.90
2018-05-04T21:40:14.578Z,81.80
2018-05-04T21:42:51.521Z,81.90
2018-05-04T21:45:20.425Z,82.80
2018-05-04T21:47:51.094Z,82.70
2018-05-04T21:50:20.160Z,83.60
2018-05-04T21:52:53.170Z,82.90
2018-05-04T21:55:22.887Z,84.00
2018-05-04T21:57:59.104Z,84.00
2018-05-04T22:00:29.562Z,82.50
2018-05-04T22:02:58.626Z,83.00
2018-05-04T22:05:28.800Z,82.50
2018-05-04T22:08:00.972Z,82.40
2018-05-04T22:10:29.861Z,83.20
2018-05-04T22:13:03.081Z,81.40
2018-05-04T22:15:32.330Z,82.10
2018-05-04T22:18:14.439Z,81.80
2018-05-04T22:20:44.804Z,81.70
2018-05-04T22:23:14.401Z,81.50
2018-05-04T22:25:43.423Z,83.20
2018-05-04T22:28:13.992Z,82.50
2018-05-04T22:30:42.863Z,82.50
2018-05-04T22:33:13.922Z,83.00
2018-05-04T22:35:42.868Z,83.00
2018-05-04T22:38:15.702Z,82.90
2018-05-04T22:40:44.803Z,82.90
2018-05-04T22:43:21.385Z,82.70
2018-05-04T22:45:50.297Z,82.60
2018-05-04T22:48:19.835Z,83.20
2018-05-04T22:50:48.660Z,83.00
2018-05-04T22:53:22.046Z,82.40
2018-05-04T22:55:51.376Z,82.40
2018-05-04T22:58:23.541Z,82.60
2018-05-04T23:00:52.679Z,82.30
2018-05-04T23:03:28.763Z,83.30
2018-05-04T23:05:57.786Z,81.90
2018-05-04T23:08:27.981Z,81.70
2018-05-04T23:10:56.755Z,81.70
2018-05-04T23:13:34.684Z,83.40
2018-05-04T23:16:03.843Z,82.00
2018-05-04T23:18:33.482Z,82.80
2018-05-04T23:21:02.334Z,83.00
2018-05-04T23:23:34.617Z,82.70
2018-05-04T23:26:03.533Z,83.00
2018-05-04T23:28:40.148Z,83.60
2018-05-04T23:31:10.016Z,82.90
2018-05-04T23:33:38.931Z,82.90
2018-05-04T23:36:07.782Z,83.70
2018-05-04T23:38:41.261Z,83.70
2018-05-04T23:41:10.250Z,83.20
2018-05-04T23:43:46.373Z,82.90
2018-05-04T23:46:15.376Z,83.60
2018-05-04T23:48:45.687Z,83.40
2018-05-04T23:51:14.586Z,83.40
2018-05-04T23:53:51.914Z,84.00
2018-05-04T23:56:20.701Z,84.00
2018-05-04T23:58:50.500Z,83.70
